Aérodrome :
LOGIN :

S'inscrire | Disclaimer

   EN    FR    IT 

 










Légende :    VFR   VFR Marginal   IFR   IFR Intensif   IFR Très Intensif
Visi : 
Plafond : 
>= 8 km
>= 3000ft
5 à 8 km
1000 à 3000 ft
1500m à 5 km
500 à 1000 ft
800 à 1500m
200 à 500 ft
< 800m
< 200 ft
Symboles :   Orages  Brouillard  Fortes neiges  Fortes précipitations  Vent > 20 kt
SIGMETs :   Divers  Orages  Givrage  Turbulence  Onde Orograph.  Cendres Volcan.







- Altitude de l'aérodrome : 2096 ft
- Code IATA : AUR
- Voir les cartes d'approche


LFLW - Aurillac

DERNIER METAR :
  • 292100Z AUTO 13007KT CAVOK 09/M04 Q1011

METARs EXPIRÉS :
  • 292030Z AUTO 12006KT CAVOK 08/M04 Q1011
  • 292000Z AUTO 15008KT CAVOK 10/M04 Q1011
  • 291930Z AUTO 16008KT 120V180 CAVOK 11/M04 Q1011
  • 291900Z AUTO 16008KT CAVOK 11/M04 Q1011
  • 291830Z AUTO 17009KT CAVOK 12/M03 Q1011

TAF TAF LFLW
Valide du 29 à 15h jusqu'au 30 à 00h UTC


291400Z 2915/2924 17012KT CAVOK
Pas de NOTAMs connus pour ce terrain.



MET'MAP, la Météo Aéronautique d'un coup d'oeil ! - Copyright ORBIFLY Décembre 2007 - Disclaimer

ORBIFLY MET'MAP TEAM :

Programmation & Développement : Alexandra Zaïnal
Conception & Développement : Baudouin d'Aumeries
Co-Programmation & Développement : Marc-Olivier Méhu
Soutien technique & logistique : Manuel Goepfert

Contact : metmap@orbifly.com




SOURCES & CREDITS :

   NOAA